Time;durP1;ratioP1;P1;durP2;ratioP2;P2;SDS_P1;SDS_P2;PMS_P1;PMS_P2;Temp;Humidity;BMP_temperature;BMP_pressure;BME280_temperature;BME280_humidity;BME280_pressure;Samples;Min_cycle;Max_cycle;Signal;HPM_P1;HPM_P2
2021/07/03 00:07:43;;;;;;;2.93;1.80;;;;;;;;;;20273305;28;105993;-60
2021/07/03 00:17:44;;;;;;;4.60;1.63;;;;;;;;;;20275539;28;106733;-59
2021/07/03 00:27:45;;;;;;;2.40;1.70;;;;;;;;;;20380469;22;106184;-60
2021/07/03 00:37:46;;;;;;;1.90;1.73;;;;;;;;;;20473965;28;108362;-61
2021/07/03 00:47:47;;;;;;;3.20;1.98;;;;;;;;;;20467600;28;105797;-60
2021/07/03 00:58:31;;;;;;;4.00;2.30;;;;;;;;;;20514863;28;106342;-60
2021/07/03 01:08:31;;;;;;;3.57;2.90;;;;;;;;;;20478135;28;106813;-60
2021/07/03 01:18:32;;;;;;;3.40;2.78;;;;;;;;;;20448497;28;108304;-60
2021/07/03 01:28:32;;;;;;;3.80;2.67;;;;;;;;;;20459958;28;106236;-60
2021/07/03 01:38:33;;;;;;;4.00;3.00;;;;;;;;;;20460040;28;105973;-61
2021/07/03 01:48:34;;;;;;;4.63;2.58;;;;;;;;;;20456779;28;106777;-61
2021/07/03 01:58:35;;;;;;;5.22;3.70;;;;;;;;;;20459346;28;106426;-58
2021/07/03 02:08:40;;;;;;;7.72;3.67;;;;;;;;;;20458963;28;106795;-59
2021/07/03 02:18:40;;;;;;;6.63;3.20;;;;;;;;;;20456400;28;106158;-59
2021/07/03 03:00:50;;;;;;;10.00;6.45;;;;;;;;;;20453654;28;106404;-61
2021/07/03 03:10:50;;;;;;;10.32;6.57;;;;;;;;;;20467038;28;105955;-59
2021/07/03 03:20:51;;;;;;;10.40;6.93;;;;;;;;;;20453372;28;106978;-62
2021/07/03 03:30:51;;;;;;;11.40;6.67;;;;;;;;;;20451605;28;106205;-60
2021/07/03 03:40:53;;;;;;;13.48;7.40;;;;;;;;;;20451563;28;106631;-60
2021/07/03 03:50:53;;;;;;;10.90;6.95;;;;;;;;;;20476667;28;106146;-61
2021/07/03 04:00:54;;;;;;;10.48;6.13;;;;;;;;;;20497065;28;105729;-61
2021/07/03 04:10:55;;;;;;;9.00;5.20;;;;;;;;;;20506201;28;106687;-59
2021/07/03 04:20:55;;;;;;;7.23;5.17;;;;;;;;;;20478075;28;105945;-60
2021/07/03 04:30:56;;;;;;;8.68;5.50;;;;;;;;;;20659420;22;105893;-60
2021/07/03 04:40:57;;;;;;;12.90;5.88;;;;;;;;;;20693233;28;106077;-59
2021/07/03 04:50:57;;;;;;;12.65;6.40;;;;;;;;;;20695442;28;106612;-60
2021/07/03 05:01:58;;;;;;;11.50;7.50;;;;;;;;;;20706445;28;106407;-60
2021/07/03 05:12:03;;;;;;;10.95;7.05;;;;;;;;;;20711265;28;106423;-60
2021/07/03 05:22:05;;;;;;;10.55;7.07;;;;;;;;;;20717287;28;106301;-60
2021/07/03 05:32:06;;;;;;;11.88;6.97;;;;;;;;;;20663481;28;141227;-60
2021/07/03 05:42:07;;;;;;;10.70;6.85;;;;;;;;;;20718844;28;105969;-60
2021/07/03 05:52:07;;;;;;;10.77;6.77;;;;;;;;;;20718518;28;105981;-60
2021/07/03 06:02:08;;;;;;;11.43;7.40;;;;;;;;;;20696509;28;106468;-59
2021/07/03 06:12:09;;;;;;;9.60;7.20;;;;;;;;;;20717152;28;106332;-59
2021/07/03 06:22:13;;;;;;;7.97;4.67;;;;;;;;;;20646275;22;106214;-60
2021/07/03 06:32:14;;;;;;;7.97;5.70;;;;;;;;;;20565409;22;107447;-62
2021/07/03 06:48:56;;;;;;;14.07;8.10;;;;;;;;;;21134797;27;108028;-58
2021/07/03 06:58:57;;;;;;;15.90;9.43;;;;;;;;;;21025672;27;108380;-59
2021/07/03 07:08:57;;;;;;;14.80;10.45;;;;;;;;;;20960347;27;107771;-60
2021/07/03 07:18:58;;;;;;;18.58;12.23;;;;;;;;;;20953600;27;107795;-59
2021/07/03 07:28:59;;;;;;;22.30;14.48;;;;;;;;;;20787507;27;108090;-59
2021/07/03 07:38:59;;;;;;;17.50;12.17;;;;;;;;;;20788865;27;107569;-60
2021/07/03 07:49:00;;;;;;;18.83;11.25;;;;;;;;;;20784938;27;108292;-60
2021/07/03 07:59:00;;;;;;;16.30;11.63;;;;;;;;;;20712637;28;108317;-60
2021/07/03 08:09:01;;;;;;;21.95;13.15;;;;;;;;;;20729650;28;107920;-59
2021/07/03 08:19:02;;;;;;;17.85;12.25;;;;;;;;;;20728975;28;108092;-60
2021/07/03 08:29:03;;;;;;;26.25;14.88;;;;;;;;;;20729757;28;108328;-60
2021/07/03 08:39:05;;;;;;;18.10;11.63;;;;;;;;;;20725935;28;108169;-60
2021/07/03 08:49:10;;;;;;;20.60;11.98;;;;;;;;;;20691085;27;108099;-60
2021/07/03 08:59:21;;;;;;;26.42;13.38;;;;;;;;;;20668903;27;108592;-60
2021/07/03 09:09:25;;;;;;;28.92;15.63;;;;;;;;;;20720034;27;107524;-60
